Indianapolis, Indiana
Current Conditions -  °F | °C
As of 1:54 AM on Saturday 29 Nov 2014 (Local Time) from KIND Reporting Station
Broken Clouds Broken Clouds  
Wind Chill: 24°   Ceiling: 17000
Heat Index: 31°   Visibility: 10mi
Dew Point: 23°   Wind: 7mph
Humidity: 72%   Direction: 130°SE
Pressure: 29.98"   Gusts: NA
Location:  39.77°N, 86.15°W
Report Text: KIND 290654Z 13006KT 10SM BKN170 M01/M05 A2998 RMK AO2 SLP160 T10061050
Loading
Personal Weather Stations






























Interactive Weather Map New forecast layout! Learn more

10-Day Weather Forecast

Advertisements
Track Severe Weather on mobile